createdAt,value
2022-09-30T00:00:29.779Z,5.20
2022-09-30T00:06:09.297Z,5.38
2022-09-30T00:11:33.949Z,4.47
2022-09-30T00:16:54.805Z,4.72
2022-09-30T00:22:16.114Z,4.35
2022-09-30T00:27:38.737Z,4.32
2022-09-30T00:32:59.749Z,5.32
2022-09-30T00:38:20.624Z,4.40
2022-09-30T00:43:45.602Z,4.88
2022-09-30T00:49:14.972Z,4.47
2022-09-30T00:54:36.234Z,4.37
2022-09-30T00:59:57.507Z,4.32
2022-09-30T01:05:18.333Z,4.13
2022-09-30T01:10:39.084Z,3.95
2022-09-30T01:16:06.913Z,4.10
2022-09-30T01:21:44.349Z,3.78
2022-09-30T01:27:30.583Z,4.25
2022-09-30T01:33:10.530Z,4.55
2022-09-30T01:38:48.629Z,4.20
2022-09-30T01:44:11.345Z,5.25
2022-09-30T01:49:49.455Z,5.60
2022-09-30T01:55:28.404Z,5.38
2022-09-30T02:00:53.705Z,6.30
2022-09-30T02:06:20.860Z,5.28
2022-09-30T02:11:42.539Z,5.50
2022-09-30T02:17:24.046Z,6.60
2022-09-30T02:23:00.742Z,6.78
2022-09-30T02:28:27.525Z,8.13
2022-09-30T02:33:55.147Z,6.82
2022-09-30T02:39:26.723Z,8.82
2022-09-30T02:44:52.299Z,9.88
2022-09-30T02:50:39.339Z,5.53
2022-09-30T02:56:14.704Z,7.90
2022-09-30T03:01:35.676Z,8.88
2022-09-30T03:06:56.580Z,7.60
2022-09-30T03:12:24.234Z,7.55
2022-09-30T03:18:10.696Z,8.30
2022-09-30T03:23:40.484Z,8.20
2022-09-30T03:29:23.134Z,8.75
2022-09-30T03:34:47.146Z,8.20
2022-09-30T03:40:30.598Z,8.80
2022-09-30T03:46:01.639Z,8.52
2022-09-30T03:51:25.111Z,8.45
2022-09-30T03:56:45.876Z,9.15
2022-09-30T04:02:10.603Z,8.10
2022-09-30T04:07:31.370Z,8.52
2022-09-30T04:12:54.855Z,8.35
2022-09-30T04:18:15.517Z,9.18
2022-09-30T04:23:37.518Z,8.50
2022-09-30T04:28:58.877Z,9.40
2022-09-30T04:34:19.530Z,8.27
2022-09-30T04:39:40.947Z,8.52
2022-09-30T04:45:02.722Z,9.02
2022-09-30T04:50:24.029Z,8.35
2022-09-30T04:55:45.683Z,9.82
2022-09-30T05:01:08.776Z,7.82
2022-09-30T05:06:29.461Z,8.10
2022-09-30T05:11:50.157Z,8.27
2022-09-30T05:17:10.944Z,8.02
2022-09-30T05:22:31.560Z,8.70
2022-09-30T05:27:52.222Z,8.93
2022-09-30T05:33:14.270Z,8.52
2022-09-30T05:38:35.597Z,9.13
2022-09-30T05:44:01.167Z,8.88
2022-09-30T05:49:22.293Z,8.77
2022-09-30T05:54:44.509Z,9.52
2022-09-30T06:00:06.642Z,8.68
2022-09-30T06:05:31.979Z,9.20
2022-09-30T06:10:52.928Z,8.50
2022-09-30T06:16:14.071Z,8.45
2022-09-30T06:21:35.052Z,9.02
2022-09-30T06:26:55.923Z,10.02
2022-09-30T06:32:17.619Z,10.45
2022-09-30T06:37:38.839Z,10.77
2022-09-30T06:43:00.567Z,11.30
2022-09-30T06:48:35.074Z,10.73
2022-09-30T06:54:00.185Z,10.57
2022-09-30T06:59:21.436Z,10.15
2022-09-30T07:04:42.802Z,10.75
2022-09-30T07:10:04.667Z,7.93
2022-09-30T07:15:25.664Z,10.23
2022-09-30T07:20:54.195Z,7.82
2022-09-30T07:26:20.807Z,10.45
2022-09-30T07:31:41.396Z,11.35
2022-09-30T07:37:04.275Z,8.70
2022-09-30T07:42:26.798Z,5.93
2022-09-30T07:47:53.267Z,8.50
2022-09-30T07:53:14.738Z,6.68
2022-09-30T07:58:36.167Z,8.40
2022-09-30T08:04:02.134Z,8.80
2022-09-30T08:09:25.095Z,9.80
2022-09-30T08:14:46.196Z,10.55
2022-09-30T08:20:12.981Z,10.60
2022-09-30T08:25:34.926Z,8.82
2022-09-30T08:30:55.646Z,10.43
2022-09-30T08:36:19.078Z,10.50
2022-09-30T08:42:25.168Z,7.97
2022-09-30T08:48:13.856Z,10.40
2022-09-30T08:53:46.943Z,8.32
2022-09-30T08:59:21.295Z,8.88
2022-09-30T09:04:42.663Z,9.18
2022-09-30T09:10:20.906Z,8.02
2022-09-30T09:16:08.085Z,7.20
2022-09-30T09:21:54.645Z,9.30
2022-09-30T09:27:38.614Z,7.57
2022-09-30T09:33:16.114Z,9.00
2022-09-30T09:38:46.201Z,10.00
2022-09-30T09:44:26.934Z,10.65
2022-09-30T09:49:57.679Z,8.85
2022-09-30T09:55:22.365Z,10.15
2022-09-30T10:00:46.600Z,8.57
2022-09-30T10:06:10.316Z,9.57
2022-09-30T10:11:31.293Z,8.82
2022-09-30T10:17:00.147Z,5.72
2022-09-30T10:22:28.303Z,4.82
2022-09-30T10:27:53.256Z,5.50
2022-09-30T10:33:20.633Z,7.53
2022-09-30T10:39:07.350Z,4.53
2022-09-30T10:44:29.773Z,4.75
2022-09-30T10:50:15.457Z,4.13
2022-09-30T10:55:43.238Z,5.15
2022-09-30T11:01:32.859Z,4.18
2022-09-30T11:07:04.303Z,3.60
2022-09-30T11:12:47.485Z,3.50
2022-09-30T11:18:21.217Z,3.03
2022-09-30T11:23:52.256Z,2.15
2022-09-30T11:29:35.826Z,3.00
2022-09-30T11:35:11.958Z,3.00
2022-09-30T11:41:07.405Z,3.38
2022-09-30T11:46:46.895Z,2.28
2022-09-30T11:52:18.486Z,2.20
2022-09-30T11:58:08.422Z,1.92
2022-09-30T12:03:50.746Z,1.75
2022-09-30T12:09:32.515Z,2.60
2022-09-30T12:15:07.598Z,1.40
2022-09-30T12:20:35.181Z,1.33
2022-09-30T12:26:00.170Z,1.98
2022-09-30T12:31:30.722Z,2.40
2022-09-30T12:37:11.260Z,2.30
2022-09-30T12:43:03.367Z,2.17
2022-09-30T12:48:34.404Z,1.77
2022-09-30T12:54:32.054Z,2.00
2022-09-30T12:59:57.319Z,1.92
2022-09-30T13:05:27.097Z,2.35
2022-09-30T13:10:57.750Z,2.60
2022-09-30T13:16:57.055Z,2.67
2022-09-30T13:22:21.087Z,2.90
2022-09-30T13:27:43.361Z,3.30
2022-09-30T13:33:04.551Z,2.60
2022-09-30T13:38:40.221Z,2.40
2022-09-30T13:44:14.974Z,3.00
2022-09-30T13:49:45.889Z,2.60
2022-09-30T13:55:17.737Z,2.33
2022-09-30T14:00:46.693Z,2.65
2022-09-30T14:06:26.892Z,2.50
2022-09-30T14:12:07.418Z,2.35
2022-09-30T14:17:43.047Z,2.33
2022-09-30T14:23:05.239Z,2.10
2022-09-30T14:28:38.255Z,1.83
2022-09-30T14:33:59.532Z,2.03
2022-09-30T14:39:26.287Z,2.05
2022-09-30T14:44:47.346Z,1.60
2022-09-30T14:50:17.674Z,2.42
2022-09-30T14:55:38.690Z,1.90
2022-09-30T15:00:59.752Z,2.20
2022-09-30T15:06:34.032Z,2.17
2022-09-30T15:11:55.763Z,1.50
2022-09-30T15:17:21.457Z,1.60
2022-09-30T15:22:42.524Z,1.60
2022-09-30T15:28:04.124Z,1.60
2022-09-30T15:33:29.035Z,1.55
2022-09-30T15:38:52.079Z,1.92
2022-09-30T15:44:37.278Z,1.30
2022-09-30T15:49:58.126Z,1.63
2022-09-30T15:55:41.809Z,1.58
2022-09-30T16:01:24.919Z,1.63
2022-09-30T16:07:08.572Z,1.60
2022-09-30T16:12:34.953Z,1.48
2022-09-30T16:17:57.902Z,1.50
2022-09-30T16:23:38.863Z,2.00
2022-09-30T16:29:08.252Z,1.60
2022-09-30T16:34:36.918Z,1.27
2022-09-30T16:40:10.464Z,1.38
2022-09-30T16:45:32.468Z,1.65
2022-09-30T16:51:02.153Z,1.88
2022-09-30T16:56:26.681Z,1.60
2022-09-30T17:01:48.966Z,1.85
2022-09-30T17:07:14.419Z,1.60
2022-09-30T17:12:35.161Z,2.20
2022-09-30T17:17:56.508Z,1.83
2022-09-30T17:23:17.106Z,1.40
2022-09-30T17:28:37.811Z,1.90
2022-09-30T17:33:58.608Z,1.88
2022-09-30T17:39:19.247Z,3.40
2022-09-30T17:44:39.913Z,3.90
2022-09-30T17:50:02.767Z,11.68
2022-09-30T17:55:23.679Z,12.60
2022-09-30T18:00:46.866Z,8.13
2022-09-30T18:06:07.869Z,7.85
2022-09-30T18:11:31.039Z,8.00
2022-09-30T18:16:52.782Z,8.07
2022-09-30T18:22:13.711Z,8.93
2022-09-30T18:27:34.412Z,10.55
2022-09-30T18:32:56.323Z,10.90
2022-09-30T18:38:16.995Z,18.02
2022-09-30T18:43:37.811Z,23.75
2022-09-30T18:48:58.978Z,28.65
2022-09-30T18:54:20.267Z,25.52
2022-09-30T18:59:41.241Z,15.13
2022-09-30T19:05:01.986Z,12.35
2022-09-30T19:10:24.506Z,11.25
2022-09-30T19:15:46.229Z,9.68
2022-09-30T19:21:11.286Z,10.02
2022-09-30T19:26:34.826Z,9.90
2022-09-30T19:32:00.190Z,9.55
2022-09-30T19:37:27.383Z,9.65
2022-09-30T19:42:49.894Z,9.43
2022-09-30T19:48:11.081Z,9.85
2022-09-30T19:53:40.965Z,9.30
2022-09-30T19:59:03.271Z,10.07
2022-09-30T20:04:25.795Z,9.98
2022-09-30T20:09:49.281Z,8.82
2022-09-30T20:15:46.320Z,9.10
2022-09-30T20:21:18.210Z,11.15
2022-09-30T20:26:40.873Z,10.18
2022-09-30T20:32:02.312Z,10.35
2022-09-30T20:37:23.035Z,11.80
2022-09-30T20:42:44.227Z,22.08
2022-09-30T20:48:05.208Z,24.05
2022-09-30T20:53:25.802Z,21.48
2022-09-30T20:58:46.786Z,12.98
2022-09-30T21:04:07.488Z,12.68
2022-09-30T21:09:29.484Z,12.60
2022-09-30T21:14:50.038Z,14.55
2022-09-30T21:20:10.860Z,12.75
2022-09-30T21:25:32.466Z,12.02
2022-09-30T21:30:53.691Z,11.93
2022-09-30T21:36:14.628Z,11.18
2022-09-30T21:41:35.869Z,10.10
2022-09-30T21:47:05.272Z,9.45
2022-09-30T21:52:28.590Z,8.30
2022-09-30T21:57:53.112Z,8.65
2022-09-30T22:03:16.784Z,7.68
2022-09-30T22:08:41.797Z,7.65
2022-09-30T22:14:02.878Z,7.00
2022-09-30T22:19:23.734Z,8.50
2022-09-30T22:24:44.432Z,6.80
2022-09-30T22:30:07.189Z,6.68
2022-09-30T22:35:46.316Z,5.32
2022-09-30T22:41:06.933Z,5.63
2022-09-30T22:46:29.341Z,5.68
2022-09-30T22:51:54.461Z,6.13
2022-09-30T22:57:15.991Z,6.05
2022-09-30T23:02:37.013Z,5.45
2022-09-30T23:07:57.597Z,6.32
2022-09-30T23:13:22.085Z,8.02
2022-09-30T23:18:46.398Z,7.40
2022-09-30T23:24:07.395Z,9.73
2022-09-30T23:29:28.054Z,8.40
2022-09-30T23:34:48.699Z,7.78
2022-09-30T23:40:10.062Z,8.95
2022-09-30T23:45:31.315Z,8.25
2022-09-30T23:50:52.191Z,8.30
2022-09-30T23:56:16.356Z,9.00
